sensor_id;sensor_type;location;lat;lon;timestamp;P1;durP1;ratioP1;P2;durP2;ratioP2
59504;SDS011;45321;53.200;5.814;2023-02-02T00:00:18;27.50;;;4.43;;
59504;SDS011;45321;53.200;5.814;2023-02-02T00:02:45;36.75;;;4.35;;
59504;SDS011;45321;53.200;5.814;2023-02-02T00:05:10;40.70;;;4.50;;
59504;SDS011;45321;53.200;5.814;2023-02-02T00:07:36;30.73;;;4.13;;
59504;SDS011;45321;53.200;5.814;2023-02-02T00:10:02;33.08;;;4.50;;
59504;SDS011;45321;53.200;5.814;2023-02-02T00:12:27;28.55;;;4.50;;
59504;SDS011;45321;53.200;5.814;2023-02-02T00:14:53;28.25;;;4.32;;
59504;SDS011;45321;53.200;5.814;2023-02-02T00:17:19;32.97;;;4.72;;
59504;SDS011;45321;53.200;5.814;2023-02-02T00:19:45;31.27;;;4.75;;
59504;SDS011;45321;53.200;5.814;2023-02-02T00:22:16;28.23;;;5.88;;
59504;SDS011;45321;53.200;5.814;2023-02-02T00:24:42;31.60;;;5.03;;
59504;SDS011;45321;53.200;5.814;2023-02-02T00:27:07;31.48;;;4.63;;
59504;SDS011;45321;53.200;5.814;2023-02-02T00:29:33;32.03;;;5.18;;
59504;SDS011;45321;53.200;5.814;2023-02-02T00:32:01;34.33;;;5.47;;
59504;SDS011;45321;53.200;5.814;2023-02-02T00:34:26;31.13;;;5.22;;
59504;SDS011;45321;53.200;5.814;2023-02-02T00:36:52;39.13;;;4.90;;
59504;SDS011;45321;53.200;5.814;2023-02-02T00:39:21;21.38;;;3.80;;
59504;SDS011;45321;53.200;5.814;2023-02-02T00:41:52;30.45;;;4.50;;
59504;SDS011;45321;53.200;5.814;2023-02-02T00:44:18;31.55;;;4.63;;
59504;SDS011;45321;53.200;5.814;2023-02-02T00:47:02;34.45;;;5.40;;
59504;SDS011;45321;53.200;5.814;2023-02-02T00:49:27;23.30;;;4.13;;
59504;SDS011;45321;53.200;5.814;2023-02-02T00:51:53;30.70;;;4.25;;
59504;SDS011;45321;53.200;5.814;2023-02-02T00:54:19;32.42;;;5.00;;
59504;SDS011;45321;53.200;5.814;2023-02-02T00:56:45;34.58;;;5.55;;
59504;SDS011;45321;53.200;5.814;2023-02-02T00:59:11;28.90;;;3.70;;
59504;SDS011;45321;53.200;5.814;2023-02-02T01:01:36;34.83;;;4.30;;
59504;SDS011;45321;53.200;5.814;2023-02-02T01:04:05;33.03;;;5.88;;
59504;SDS011;45321;53.200;5.814;2023-02-02T01:06:31;34.28;;;4.82;;
59504;SDS011;45321;53.200;5.814;2023-02-02T01:08:57;32.67;;;3.65;;
59504;SDS011;45321;53.200;5.814;2023-02-02T01:11:23;35.50;;;5.28;;
59504;SDS011;45321;53.200;5.814;2023-02-02T01:13:49;28.60;;;5.03;;
59504;SDS011;45321;53.200;5.814;2023-02-02T01:16:15;36.22;;;5.95;;
59504;SDS011;45321;53.200;5.814;2023-02-02T01:18:41;35.00;;;4.72;;
59504;SDS011;45321;53.200;5.814;2023-02-02T01:21:08;34.33;;;4.93;;
59504;SDS011;45321;53.200;5.814;2023-02-02T01:23:36;30.95;;;5.05;;
59504;SDS011;45321;53.200;5.814;2023-02-02T01:26:03;32.83;;;4.68;;
59504;SDS011;45321;53.200;5.814;2023-02-02T01:28:31;30.63;;;4.60;;
59504;SDS011;45321;53.200;5.814;2023-02-02T01:30:57;35.35;;;5.70;;
59504;SDS011;45321;53.200;5.814;2023-02-02T01:33:23;30.50;;;4.18;;
59504;SDS011;45321;53.200;5.814;2023-02-02T01:35:50;38.03;;;4.47;;
59504;SDS011;45321;53.200;5.814;2023-02-02T01:38:17;30.00;;;4.50;;
59504;SDS011;45321;53.200;5.814;2023-02-02T01:40:48;33.97;;;4.55;;
59504;SDS011;45321;53.200;5.814;2023-02-02T01:43:25;37.53;;;4.18;;
59504;SDS011;45321;53.200;5.814;2023-02-02T01:45:51;37.15;;;4.80;;
59504;SDS011;45321;53.200;5.814;2023-02-02T01:48:20;33.30;;;4.25;;
59504;SDS011;45321;53.200;5.814;2023-02-02T01:50:52;28.27;;;4.30;;
59504;SDS011;45321;53.200;5.814;2023-02-02T01:53:20;32.17;;;4.72;;
59504;SDS011;45321;53.200;5.814;2023-02-02T01:55:47;27.95;;;4.93;;
59504;SDS011;45321;53.200;5.814;2023-02-02T01:58:18;33.53;;;4.32;;
59504;SDS011;45321;53.200;5.814;2023-02-02T02:00:48;24.00;;;3.45;;
59504;SDS011;45321;53.200;5.814;2023-02-02T02:03:15;25.05;;;3.53;;
59504;SDS011;45321;53.200;5.814;2023-02-02T02:06:07;32.80;;;4.35;;
59504;SDS011;45321;53.200;5.814;2023-02-02T02:08:34;26.25;;;4.30;;
59504;SDS011;45321;53.200;5.814;2023-02-02T02:11:07;34.75;;;5.05;;
59504;SDS011;45321;53.200;5.814;2023-02-02T02:13:34;22.67;;;3.85;;
59504;SDS011;45321;53.200;5.814;2023-02-02T02:16:35;20.50;;;3.40;;
59504;SDS011;45321;53.200;5.814;2023-02-02T02:19:28;32.53;;;3.70;;
59504;SDS011;45321;53.200;5.814;2023-02-02T02:33:19;17.75;;;1.90;;
59504;SDS011;45321;53.200;5.814;2023-02-02T02:41:11;19.20;;;3.00;;
59504;SDS011;45321;53.200;5.814;2023-02-02T02:43:44;23.23;;;3.22;;
59504;SDS011;45321;53.200;5.814;2023-02-02T02:46:15;30.48;;;4.30;;
59504;SDS011;45321;53.200;5.814;2023-02-02T02:48:44;23.88;;;2.92;;
59504;SDS011;45321;53.200;5.814;2023-02-02T02:54:08;20.20;;;2.88;;
59504;SDS011;45321;53.200;5.814;2023-02-02T03:10:48;18.75;;;2.58;;
59504;SDS011;45321;53.200;5.814;2023-02-02T03:13:15;19.25;;;3.13;;
59504;SDS011;45321;53.200;5.814;2023-02-02T03:15:42;15.90;;;2.08;;
59504;SDS011;45321;53.200;5.814;2023-02-02T03:18:10;12.18;;;1.73;;
59504;SDS011;45321;53.200;5.814;2023-02-02T03:20:41;10.00;;;1.65;;
59504;SDS011;45321;53.200;5.814;2023-02-02T03:23:09;14.38;;;1.63;;
59504;SDS011;45321;53.200;5.814;2023-02-02T03:25:34;12.02;;;2.20;;
59504;SDS011;45321;53.200;5.814;2023-02-02T03:28:00;9.80;;;1.75;;
59504;SDS011;45321;53.200;5.814;2023-02-02T03:30:26;12.68;;;1.83;;
59504;SDS011;45321;53.200;5.814;2023-02-02T03:32:52;9.18;;;1.50;;
59504;SDS011;45321;53.200;5.814;2023-02-02T03:35:18;10.90;;;1.67;;
59504;SDS011;45321;53.200;5.814;2023-02-02T03:37:47;10.65;;;1.60;;
59504;SDS011;45321;53.200;5.814;2023-02-02T03:40:12;10.55;;;1.40;;
59504;SDS011;45321;53.200;5.814;2023-02-02T03:42:38;8.60;;;1.20;;
59504;SDS011;45321;53.200;5.814;2023-02-02T03:45:04;9.68;;;1.73;;
59504;SDS011;45321;53.200;5.814;2023-02-02T03:47:31;13.75;;;2.00;;
59504;SDS011;45321;53.200;5.814;2023-02-02T03:49:57;8.48;;;1.50;;
59504;SDS011;45321;53.200;5.814;2023-02-02T03:52:23;5.22;;;1.23;;
59504;SDS011;45321;53.200;5.814;2023-02-02T03:54:52;10.18;;;2.15;;
59504;SDS011;45321;53.200;5.814;2023-02-02T03:57:18;12.10;;;1.70;;
59504;SDS011;45321;53.200;5.814;2023-02-02T03:59:44;7.97;;;1.80;;
59504;SDS011;45321;53.200;5.814;2023-02-02T04:02:09;9.15;;;1.40;;
59504;SDS011;45321;53.200;5.814;2023-02-02T04:04:35;10.57;;;2.17;;
59504;SDS011;45321;53.200;5.814;2023-02-02T04:07:01;11.55;;;1.25;;
59504;SDS011;45321;53.200;5.814;2023-02-02T04:09:26;8.75;;;1.10;;
59504;SDS011;45321;53.200;5.814;2023-02-02T04:11:52;5.72;;;1.30;;
59504;SDS011;45321;53.200;5.814;2023-02-02T04:14:18;7.72;;;1.30;;
59504;SDS011;45321;53.200;5.814;2023-02-02T04:16:44;11.80;;;1.60;;
59504;SDS011;45321;53.200;5.814;2023-02-02T04:19:10;11.88;;;1.30;;
59504;SDS011;45321;53.200;5.814;2023-02-02T04:21:37;13.30;;;1.63;;
59504;SDS011;45321;53.200;5.814;2023-02-02T04:24:03;8.00;;;1.10;;
59504;SDS011;45321;53.200;5.814;2023-02-02T04:26:30;11.68;;;1.20;;
59504;SDS011;45321;53.200;5.814;2023-02-02T04:28:56;9.80;;;1.25;;
59504;SDS011;45321;53.200;5.814;2023-02-02T04:31:21;4.78;;;0.90;;
59504;SDS011;45321;53.200;5.814;2023-02-02T04:33:47;5.60;;;1.10;;
59504;SDS011;45321;53.200;5.814;2023-02-02T04:36:13;8.20;;;1.42;;
59504;SDS011;45321;53.200;5.814;2023-02-02T04:38:39;10.98;;;2.20;;
59504;SDS011;45321;53.200;5.814;2023-02-02T04:41:06;7.78;;;1.40;;
59504;SDS011;45321;53.200;5.814;2023-02-02T04:43:36;7.95;;;1.80;;
59504;SDS011;45321;53.200;5.814;2023-02-02T04:46:03;8.98;;;1.60;;
59504;SDS011;45321;53.200;5.814;2023-02-02T04:48:29;9.18;;;1.60;;
59504;SDS011;45321;53.200;5.814;2023-02-02T04:51:02;9.65;;;2.08;;
59504;SDS011;45321;53.200;5.814;2023-02-02T04:53:32;8.75;;;1.50;;
59504;SDS011;45321;53.200;5.814;2023-02-02T04:56:03;6.90;;;1.30;;
59504;SDS011;45321;53.200;5.814;2023-02-02T04:58:30;9.98;;;1.30;;
59504;SDS011;45321;53.200;5.814;2023-02-02T05:00:55;10.25;;;1.73;;
59504;SDS011;45321;53.200;5.814;2023-02-02T05:03:21;11.95;;;1.58;;
59504;SDS011;45321;53.200;5.814;2023-02-02T05:05:47;15.55;;;2.17;;
59504;SDS011;45321;53.200;5.814;2023-02-02T05:08:13;11.43;;;2.03;;
59504;SDS011;45321;53.200;5.814;2023-02-02T05:10:39;10.98;;;1.92;;
59504;SDS011;45321;53.200;5.814;2023-02-02T05:13:06;9.93;;;1.40;;
59504;SDS011;45321;53.200;5.814;2023-02-02T05:15:38;5.28;;;1.63;;
59504;SDS011;45321;53.200;5.814;2023-02-02T05:18:04;8.20;;;1.13;;
59504;SDS011;45321;53.200;5.814;2023-02-02T05:20:29;11.68;;;1.88;;
59504;SDS011;45321;53.200;5.814;2023-02-02T05:22:55;9.38;;;1.55;;
59504;SDS011;45321;53.200;5.814;2023-02-02T05:25:21;11.48;;;1.50;;
59504;SDS011;45321;53.200;5.814;2023-02-02T05:27:47;7.47;;;1.73;;
59504;SDS011;45321;53.200;5.814;2023-02-02T05:30:13;10.80;;;1.60;;
59504;SDS011;45321;53.200;5.814;2023-02-02T05:32:39;6.80;;;1.50;;
59504;SDS011;45321;53.200;5.814;2023-02-02T05:35:05;8.35;;;1.55;;
59504;SDS011;45321;53.200;5.814;2023-02-02T05:37:31;7.15;;;1.95;;
59504;SDS011;45321;53.200;5.814;2023-02-02T05:39:57;9.07;;;1.88;;
59504;SDS011;45321;53.200;5.814;2023-02-02T05:42:23;11.98;;;1.80;;
59504;SDS011;45321;53.200;5.814;2023-02-02T05:44:48;7.10;;;1.80;;
59504;SDS011;45321;53.200;5.814;2023-02-02T05:47:17;11.32;;;1.42;;
59504;SDS011;45321;53.200;5.814;2023-02-02T05:49:42;10.57;;;1.60;;
59504;SDS011;45321;53.200;5.814;2023-02-02T05:52:09;10.45;;;1.88;;
59504;SDS011;45321;53.200;5.814;2023-02-02T05:54:39;8.57;;;1.42;;
59504;SDS011;45321;53.200;5.814;2023-02-02T05:57:05;8.07;;;1.90;;
59504;SDS011;45321;53.200;5.814;2023-02-02T05:59:31;10.73;;;1.60;;
59504;SDS011;45321;53.200;5.814;2023-02-02T06:01:56;9.45;;;1.80;;
59504;SDS011;45321;53.200;5.814;2023-02-02T06:04:22;9.20;;;1.38;;
59504;SDS011;45321;53.200;5.814;2023-02-02T06:06:48;8.68;;;1.40;;
59504;SDS011;45321;53.200;5.814;2023-02-02T06:09:13;10.93;;;1.73;;
59504;SDS011;45321;53.200;5.814;2023-02-02T06:11:39;6.28;;;1.70;;
59504;SDS011;45321;53.200;5.814;2023-02-02T06:14:07;9.65;;;1.52;;
59504;SDS011;45321;53.200;5.814;2023-02-02T06:16:33;7.43;;;1.60;;
59504;SDS011;45321;53.200;5.814;2023-02-02T06:18:58;5.70;;;1.25;;
59504;SDS011;45321;53.200;5.814;2023-02-02T06:21:24;6.65;;;1.38;;
59504;SDS011;45321;53.200;5.814;2023-02-02T06:23:50;10.23;;;1.88;;
59504;SDS011;45321;53.200;5.814;2023-02-02T06:26:16;6.70;;;1.33;;
59504;SDS011;45321;53.200;5.814;2023-02-02T06:28:46;5.38;;;1.33;;
59504;SDS011;45321;53.200;5.814;2023-02-02T06:31:14;6.25;;;1.70;;
59504;SDS011;45321;53.200;5.814;2023-02-02T06:33:43;9.43;;;2.22;;
59504;SDS011;45321;53.200;5.814;2023-02-02T06:36:10;7.25;;;2.40;;
59504;SDS011;45321;53.200;5.814;2023-02-02T06:38:35;9.77;;;2.72;;
59504;SDS011;45321;53.200;5.814;2023-02-02T06:41:01;3.63;;;1.35;;
59504;SDS011;45321;53.200;5.814;2023-02-02T06:43:27;8.65;;;1.67;;
59504;SDS011;45321;53.200;5.814;2023-02-02T06:45:55;3.38;;;1.15;;
59504;SDS011;45321;53.200;5.814;2023-02-02T06:48:22;6.03;;;1.70;;
59504;SDS011;45321;53.200;5.814;2023-02-02T06:50:48;6.80;;;1.70;;
59504;SDS011;45321;53.200;5.814;2023-02-02T06:53:14;11.48;;;2.50;;
59504;SDS011;45321;53.200;5.814;2023-02-02T06:55:51;8.45;;;2.10;;
59504;SDS011;45321;53.200;5.814;2023-02-02T06:58:21;10.70;;;2.90;;
59504;SDS011;45321;53.200;5.814;2023-02-02T07:00:47;8.55;;;2.22;;
59504;SDS011;45321;53.200;5.814;2023-02-02T07:03:13;8.90;;;2.90;;
59504;SDS011;45321;53.200;5.814;2023-02-02T07:05:42;8.02;;;2.65;;
59504;SDS011;45321;53.200;5.814;2023-02-02T07:08:07;9.50;;;4.13;;
59504;SDS011;45321;53.200;5.814;2023-02-02T07:10:35;7.07;;;3.17;;
59504;SDS011;45321;53.200;5.814;2023-02-02T07:13:01;6.20;;;3.30;;
59504;SDS011;45321;53.200;5.814;2023-02-02T07:15:27;5.93;;;2.78;;
59504;SDS011;45321;53.200;5.814;2023-02-02T07:17:53;7.03;;;2.88;;
59504;SDS011;45321;53.200;5.814;2023-02-02T07:20:19;9.27;;;3.15;;
59504;SDS011;45321;53.200;5.814;2023-02-02T07:22:44;8.82;;;2.90;;
59504;SDS011;45321;53.200;5.814;2023-02-02T07:25:10;12.45;;;2.35;;
59504;SDS011;45321;53.200;5.814;2023-02-02T07:27:36;6.88;;;2.15;;
59504;SDS011;45321;53.200;5.814;2023-02-02T07:30:02;6.75;;;1.98;;
59504;SDS011;45321;53.200;5.814;2023-02-02T07:32:28;4.85;;;2.28;;
59504;SDS011;45321;53.200;5.814;2023-02-02T07:34:54;11.13;;;2.50;;
59504;SDS011;45321;53.200;5.814;2023-02-02T07:37:19;5.60;;;2.42;;
59504;SDS011;45321;53.200;5.814;2023-02-02T07:39:45;7.60;;;2.53;;
59504;SDS011;45321;53.200;5.814;2023-02-02T07:42:11;6.25;;;2.80;;
59504;SDS011;45321;53.200;5.814;2023-02-02T07:44:37;6.18;;;3.17;;
59504;SDS011;45321;53.200;5.814;2023-02-02T07:47:03;8.02;;;3.03;;
59504;SDS011;45321;53.200;5.814;2023-02-02T07:49:29;6.80;;;3.60;;
59504;SDS011;45321;53.200;5.814;2023-02-02T07:51:55;10.68;;;4.35;;
59504;SDS011;45321;53.200;5.814;2023-02-02T07:54:21;8.23;;;4.18;;
59504;SDS011;45321;53.200;5.814;2023-02-02T07:56:47;9.32;;;3.72;;
59504;SDS011;45321;53.200;5.814;2023-02-02T07:59:12;8.38;;;3.78;;
59504;SDS011;45321;53.200;5.814;2023-02-02T08:01:38;9.35;;;3.90;;
59504;SDS011;45321;53.200;5.814;2023-02-02T08:04:04;9.10;;;4.15;;
59504;SDS011;45321;53.200;5.814;2023-02-02T08:06:31;7.13;;;3.67;;
59504;SDS011;45321;53.200;5.814;2023-02-02T08:08:59;9.45;;;4.40;;
59504;SDS011;45321;53.200;5.814;2023-02-02T08:11:25;10.05;;;4.80;;
59504;SDS011;45321;53.200;5.814;2023-02-02T08:13:53;9.73;;;3.97;;
59504;SDS011;45321;53.200;5.814;2023-02-02T08:16:20;6.75;;;4.00;;
59504;SDS011;45321;53.200;5.814;2023-02-02T08:18:46;7.47;;;3.88;;
59504;SDS011;45321;53.200;5.814;2023-02-02T08:21:13;6.95;;;3.40;;
59504;SDS011;45321;53.200;5.814;2023-02-02T08:23:40;5.22;;;3.17;;
59504;SDS011;45321;53.200;5.814;2023-02-02T08:26:10;5.55;;;3.22;;
59504;SDS011;45321;53.200;5.814;2023-02-02T08:28:46;5.85;;;3.47;;
59504;SDS011;45321;53.200;5.814;2023-02-02T08:31:15;6.63;;;3.40;;
59504;SDS011;45321;53.200;5.814;2023-02-02T08:34:00;5.25;;;3.33;;
59504;SDS011;45321;53.200;5.814;2023-02-02T08:36:27;7.35;;;3.75;;
59504;SDS011;45321;53.200;5.814;2023-02-02T08:38:54;6.57;;;4.22;;
59504;SDS011;45321;53.200;5.814;2023-02-02T08:41:24;6.40;;;4.05;;
59504;SDS011;45321;53.200;5.814;2023-02-02T08:43:49;9.88;;;4.05;;
59504;SDS011;45321;53.200;5.814;2023-02-02T08:46:16;9.23;;;5.15;;
59504;SDS011;45321;53.200;5.814;2023-02-02T08:48:43;9.40;;;5.03;;
59504;SDS011;45321;53.200;5.814;2023-02-02T08:51:10;7.25;;;4.82;;
59504;SDS011;45321;53.200;5.814;2023-02-02T08:53:38;5.95;;;4.22;;
59504;SDS011;45321;53.200;5.814;2023-02-02T08:56:05;10.90;;;5.30;;
59504;SDS011;45321;53.200;5.814;2023-02-02T08:58:33;8.93;;;3.88;;
59504;SDS011;45321;53.200;5.814;2023-02-02T09:01:04;7.93;;;3.10;;
59504;SDS011;45321;53.200;5.814;2023-02-02T09:03:53;4.55;;;2.83;;
59504;SDS011;45321;53.200;5.814;2023-02-02T09:06:38;7.45;;;3.28;;
59504;SDS011;45321;53.200;5.814;2023-02-02T09:09:05;6.75;;;3.78;;
59504;SDS011;45321;53.200;5.814;2023-02-02T09:11:36;8.40;;;4.45;;
59504;SDS011;45321;53.200;5.814;2023-02-02T09:14:02;7.45;;;3.70;;
59504;SDS011;45321;53.200;5.814;2023-02-02T09:16:39;6.20;;;4.03;;
59504;SDS011;45321;53.200;5.814;2023-02-02T09:19:05;9.63;;;4.80;;
59504;SDS011;45321;53.200;5.814;2023-02-02T09:21:34;5.47;;;3.50;;
59504;SDS011;45321;53.200;5.814;2023-02-02T09:24:04;5.38;;;3.13;;
59504;SDS011;45321;53.200;5.814;2023-02-02T09:26:41;4.97;;;3.42;;
59504;SDS011;45321;53.200;5.814;2023-02-02T09:29:12;6.68;;;4.50;;
59504;SDS011;45321;53.200;5.814;2023-02-02T09:31:44;8.02;;;4.10;;
59504;SDS011;45321;53.200;5.814;2023-02-02T09:34:14;4.72;;;3.47;;
59504;SDS011;45321;53.200;5.814;2023-02-02T09:36:40;4.90;;;2.83;;
59504;SDS011;45321;53.200;5.814;2023-02-02T09:39:08;3.58;;;2.65;;
59504;SDS011;45321;53.200;5.814;2023-02-02T09:44:08;5.20;;;2.80;;
59504;SDS011;45321;53.200;5.814;2023-02-02T09:52:47;4.55;;;2.65;;
59504;SDS011;45321;53.200;5.814;2023-02-02T09:55:40;5.00;;;2.50;;
59504;SDS011;45321;53.200;5.814;2023-02-02T09:58:14;4.53;;;2.10;;
59504;SDS011;45321;53.200;5.814;2023-02-02T10:00:43;3.15;;;2.22;;
59504;SDS011;45321;53.200;5.814;2023-02-02T10:03:33;3.75;;;2.00;;
59504;SDS011;45321;53.200;5.814;2023-02-02T10:08:58;34.60;;;6.80;;
59504;SDS011;45321;53.200;5.814;2023-02-02T10:11:38;6.47;;;3.88;;
59504;SDS011;45321;53.200;5.814;2023-02-02T10:14:23;5.55;;;2.17;;
59504;SDS011;45321;53.200;5.814;2023-02-02T10:16:58;4.38;;;1.70;;
59504;SDS011;45321;53.200;5.814;2023-02-02T10:19:29;2.40;;;1.00;;
59504;SDS011;45321;53.200;5.814;2023-02-02T10:24:34;5.18;;;0.80;;
59504;SDS011;45321;53.200;5.814;2023-02-02T10:27:02;3.45;;;0.63;;
59504;SDS011;45321;53.200;5.814;2023-02-02T10:32:09;3.78;;;1.60;;
59504;SDS011;45321;53.200;5.814;2023-02-02T10:37:41;14.88;;;10.85;;
59504;SDS011;45321;53.200;5.814;2023-02-02T10:40:21;11.02;;;7.80;;
59504;SDS011;45321;53.200;5.814;2023-02-02T10:46:11;27.25;;;24.55;;
59504;SDS011;45321;53.200;5.814;2023-02-02T10:48:47;8.50;;;6.05;;
59504;SDS011;45321;53.200;5.814;2023-02-02T10:51:33;12.27;;;11.05;;
59504;SDS011;45321;53.200;5.814;2023-02-02T10:54:19;3.63;;;2.20;;
59504;SDS011;45321;53.200;5.814;2023-02-02T10:56:59;44.05;;;4.85;;
59504;SDS011;45321;53.200;5.814;2023-02-02T10:59:31;8.40;;;3.80;;
59504;SDS011;45321;53.200;5.814;2023-02-02T11:02:02;5.28;;;3.22;;
59504;SDS011;45321;53.200;5.814;2023-02-02T11:04:34;12.55;;;11.45;;
59504;SDS011;45321;53.200;5.814;2023-02-02T11:07:21;9.30;;;8.52;;
59504;SDS011;45321;53.200;5.814;2023-02-02T11:09:47;4.50;;;2.22;;
59504;SDS011;45321;53.200;5.814;2023-02-02T11:14:58;7.15;;;3.60;;
59504;SDS011;45321;53.200;5.814;2023-02-02T11:17:32;4.05;;;2.80;;
59504;SDS011;45321;53.200;5.814;2023-02-02T11:19:59;6.45;;;2.60;;
59504;SDS011;45321;53.200;5.814;2023-02-02T11:22:58;3.88;;;2.80;;
59504;SDS011;45321;53.200;5.814;2023-02-02T11:25:29;4.82;;;1.50;;
59504;SDS011;45321;53.200;5.814;2023-02-02T11:28:01;3.53;;;1.33;;
59504;SDS011;45321;53.200;5.814;2023-02-02T11:30:45;2.33;;;1.60;;
59504;SDS011;45321;53.200;5.814;2023-02-02T11:36:16;2.22;;;1.35;;
59504;SDS011;45321;53.200;5.814;2023-02-02T11:38:46;2.80;;;1.42;;
59504;SDS011;45321;53.200;5.814;2023-02-02T11:41:14;2.92;;;1.73;;
59504;SDS011;45321;53.200;5.814;2023-02-02T11:43:47;3.35;;;2.00;;
59504;SDS011;45321;53.200;5.814;2023-02-02T11:46:19;3.63;;;2.30;;
59504;SDS011;45321;53.200;5.814;2023-02-02T11:48:52;5.28;;;2.38;;
59504;SDS011;45321;53.200;5.814;2023-02-02T11:51:30;2.15;;;1.90;;
59504;SDS011;45321;53.200;5.814;2023-02-02T11:54:06;3.50;;;2.10;;
59504;SDS011;45321;53.200;5.814;2023-02-02T11:56:48;4.03;;;2.47;;
59504;SDS011;45321;53.200;5.814;2023-02-02T11:59:28;2.13;;;1.92;;
59504;SDS011;45321;53.200;5.814;2023-02-02T12:08:28;3.88;;;2.00;;
59504;SDS011;45321;53.200;5.814;2023-02-02T12:11:00;2.55;;;2.10;;
59504;SDS011;45321;53.200;5.814;2023-02-02T12:16:41;3.65;;;2.95;;
59504;SDS011;45321;53.200;5.814;2023-02-02T12:19:52;7.10;;;3.90;;
59504;SDS011;45321;53.200;5.814;2023-02-02T12:25:29;7.60;;;5.95;;
59504;SDS011;45321;53.200;5.814;2023-02-02T12:30:50;10.23;;;5.55;;
59504;SDS011;45321;53.200;5.814;2023-02-02T12:36:19;9.73;;;4.47;;
59504;SDS011;45321;53.200;5.814;2023-02-02T12:47:16;16.98;;;6.00;;
59504;SDS011;45321;53.200;5.814;2023-02-02T13:27:04;39.87;;;9.63;;
59504;SDS011;45321;53.200;5.814;2023-02-02T13:29:51;35.50;;;10.27;;
59504;SDS011;45321;53.200;5.814;2023-02-02T13:32:41;50.85;;;9.00;;
59504;SDS011;45321;53.200;5.814;2023-02-02T13:35:20;32.45;;;8.73;;
59504;SDS011;45321;53.200;5.814;2023-02-02T13:38:12;34.95;;;8.45;;
59504;SDS011;45321;53.200;5.814;2023-02-02T13:40:48;36.90;;;8.27;;
59504;SDS011;45321;53.200;5.814;2023-02-02T13:57:56;37.67;;;8.88;;
59504;SDS011;45321;53.200;5.814;2023-02-02T14:00:42;37.38;;;9.10;;
59504;SDS011;45321;53.200;5.814;2023-02-02T14:06:06;42.47;;;10.55;;
59504;SDS011;45321;53.200;5.814;2023-02-02T14:08:45;69.00;;;12.45;;
59504;SDS011;45321;53.200;5.814;2023-02-02T14:11:21;40.83;;;10.93;;
59504;SDS011;45321;53.200;5.814;2023-02-02T14:13:49;77.70;;;30.73;;
59504;SDS011;45321;53.200;5.814;2023-02-02T14:19:03;32.72;;;7.60;;
59504;SDS011;45321;53.200;5.814;2023-02-02T14:26:47;26.02;;;7.40;;
59504;SDS011;45321;53.200;5.814;2023-02-02T14:31:56;32.15;;;6.43;;
59504;SDS011;45321;53.200;5.814;2023-02-02T14:34:30;31.88;;;5.43;;
59504;SDS011;45321;53.200;5.814;2023-02-02T14:39:51;32.05;;;5.57;;
59504;SDS011;45321;53.200;5.814;2023-02-02T14:48:31;27.35;;;6.05;;
59504;SDS011;45321;53.200;5.814;2023-02-02T14:50:58;30.67;;;7.47;;
59504;SDS011;45321;53.200;5.814;2023-02-02T14:53:33;30.42;;;7.00;;
59504;SDS011;45321;53.200;5.814;2023-02-02T15:01:09;26.45;;;7.00;;
59504;SDS011;45321;53.200;5.814;2023-02-02T15:03:46;31.25;;;7.88;;
59504;SDS011;45321;53.200;5.814;2023-02-02T15:06:35;32.50;;;7.30;;
59504;SDS011;45321;53.200;5.814;2023-02-02T15:16:55;22.63;;;7.25;;
59504;SDS011;45321;53.200;5.814;2023-02-02T15:19:33;16.98;;;6.45;;
59504;SDS011;45321;53.200;5.814;2023-02-02T15:25:03;22.83;;;6.37;;
59504;SDS011;45321;53.200;5.814;2023-02-02T15:27:37;22.52;;;7.60;;
59504;SDS011;45321;53.200;5.814;2023-02-02T15:30:06;27.23;;;7.18;;
59504;SDS011;45321;53.200;5.814;2023-02-02T15:32:37;23.27;;;6.68;;
59504;SDS011;45321;53.200;5.814;2023-02-02T15:35:04;25.20;;;6.00;;
59504;SDS011;45321;53.200;5.814;2023-02-02T15:37:38;26.37;;;7.13;;
59504;SDS011;45321;53.200;5.814;2023-02-02T15:40:15;28.23;;;7.22;;
59504;SDS011;45321;53.200;5.814;2023-02-02T15:42:58;29.15;;;6.82;;
59504;SDS011;45321;53.200;5.814;2023-02-02T15:47:59;34.83;;;7.43;;
59504;SDS011;45321;53.200;5.814;2023-02-02T15:50:29;22.35;;;6.15;;
59504;SDS011;45321;53.200;5.814;2023-02-02T15:52:55;27.58;;;6.35;;
59504;SDS011;45321;53.200;5.814;2023-02-02T15:55:23;22.02;;;6.80;;
59504;SDS011;45321;53.200;5.814;2023-02-02T15:57:55;28.20;;;7.05;;
59504;SDS011;45321;53.200;5.814;2023-02-02T16:00:26;35.00;;;6.65;;
59504;SDS011;45321;53.200;5.814;2023-02-02T16:03:03;31.88;;;6.40;;
59504;SDS011;45321;53.200;5.814;2023-02-02T16:08:04;32.53;;;7.38;;
59504;SDS011;45321;53.200;5.814;2023-02-02T16:10:33;27.38;;;6.35;;
59504;SDS011;45321;53.200;5.814;2023-02-02T16:13:00;36.42;;;6.63;;
59504;SDS011;45321;53.200;5.814;2023-02-02T16:15:27;36.85;;;7.53;;
59504;SDS011;45321;53.200;5.814;2023-02-02T16:17:57;41.78;;;7.10;;
59504;SDS011;45321;53.200;5.814;2023-02-02T16:20:24;31.55;;;7.25;;
59504;SDS011;45321;53.200;5.814;2023-02-02T16:22:51;34.25;;;7.70;;
59504;SDS011;45321;53.200;5.814;2023-02-02T16:25:20;31.48;;;8.35;;
59504;SDS011;45321;53.200;5.814;2023-02-02T16:27:48;39.35;;;7.63;;
59504;SDS011;45321;53.200;5.814;2023-02-02T16:30:29;31.05;;;6.97;;
59504;SDS011;45321;53.200;5.814;2023-02-02T16:35:51;30.98;;;7.55;;
59504;SDS011;45321;53.200;5.814;2023-02-02T16:41:06;28.02;;;7.57;;
59504;SDS011;45321;53.200;5.814;2023-02-02T16:43:32;31.35;;;7.60;;
59504;SDS011;45321;53.200;5.814;2023-02-02T16:46:00;32.63;;;6.97;;
59504;SDS011;45321;53.200;5.814;2023-02-02T16:48:35;31.08;;;8.10;;
59504;SDS011;45321;53.200;5.814;2023-02-02T16:53:40;33.42;;;7.10;;
59504;SDS011;45321;53.200;5.814;2023-02-02T16:56:27;32.42;;;7.30;;
59504;SDS011;45321;53.200;5.814;2023-02-02T16:58:59;29.63;;;8.70;;
59504;SDS011;45321;53.200;5.814;2023-02-02T17:01:39;29.60;;;8.32;;
59504;SDS011;45321;53.200;5.814;2023-02-02T17:04:15;26.35;;;8.48;;
59504;SDS011;45321;53.200;5.814;2023-02-02T17:06:48;34.53;;;8.70;;
59504;SDS011;45321;53.200;5.814;2023-02-02T17:09:29;26.90;;;6.47;;
59504;SDS011;45321;53.200;5.814;2023-02-02T17:14:48;31.88;;;7.93;;
59504;SDS011;45321;53.200;5.814;2023-02-02T17:17:18;29.83;;;6.35;;
59504;SDS011;45321;53.200;5.814;2023-02-02T17:19:44;25.40;;;6.45;;
59504;SDS011;45321;53.200;5.814;2023-02-02T17:22:11;19.52;;;6.22;;
59504;SDS011;45321;53.200;5.814;2023-02-02T17:24:45;22.92;;;6.60;;
59504;SDS011;45321;53.200;5.814;2023-02-02T17:27:26;27.90;;;6.40;;
59504;SDS011;45321;53.200;5.814;2023-02-02T17:29:55;22.13;;;6.70;;
59504;SDS011;45321;53.200;5.814;2023-02-02T17:32:21;19.35;;;6.20;;
59504;SDS011;45321;53.200;5.814;2023-02-02T17:34:49;25.55;;;6.22;;
59504;SDS011;45321;53.200;5.814;2023-02-02T17:37:15;21.55;;;6.63;;
59504;SDS011;45321;53.200;5.814;2023-02-02T17:39:40;22.10;;;6.18;;
59504;SDS011;45321;53.200;5.814;2023-02-02T17:42:11;20.02;;;5.43;;
59504;SDS011;45321;53.200;5.814;2023-02-02T17:44:46;24.75;;;6.03;;
59504;SDS011;45321;53.200;5.814;2023-02-02T17:47:12;18.23;;;4.78;;
59504;SDS011;45321;53.200;5.814;2023-02-02T17:49:38;20.48;;;4.72;;
59504;SDS011;45321;53.200;5.814;2023-02-02T17:52:03;17.23;;;4.22;;
59504;SDS011;45321;53.200;5.814;2023-02-02T17:54:29;23.00;;;5.60;;
59504;SDS011;45321;53.200;5.814;2023-02-02T17:56:55;19.10;;;4.72;;
59504;SDS011;45321;53.200;5.814;2023-02-02T17:59:20;23.40;;;5.28;;
59504;SDS011;45321;53.200;5.814;2023-02-02T18:01:46;20.80;;;4.45;;
59504;SDS011;45321;53.200;5.814;2023-02-02T18:04:12;23.83;;;5.35;;
59504;SDS011;45321;53.200;5.814;2023-02-02T18:06:39;19.45;;;5.18;;
59504;SDS011;45321;53.200;5.814;2023-02-02T18:09:04;17.80;;;5.35;;
59504;SDS011;45321;53.200;5.814;2023-02-02T18:11:30;18.15;;;4.88;;